Time;durP1;ratioP1;P1;durP2;ratioP2;P2;SDS_P1;SDS_P2;PMS_P1;PMS_P2;Temp;Humidity;BMP_temperature;BMP_pressure;BME280_temperature;BME280_humidity;BME280_pressure;Samples;Min_cycle;Max_cycle;Signal;HPM_P1;HPM_P2
2023/01/24 00:00:34;;;;;;;12.63;5.90;;;3.80;99.90;;;;;;5094692;28;20027;-73
2023/01/24 00:03:00;;;;;;;11.17;5.70;;;3.80;99.90;;;;;;5113746;28;20028;-73
2023/01/24 00:05:25;;;;;;;12.20;5.90;;;3.80;99.90;;;;;;5094756;28;20683;-73
2023/01/24 00:07:51;;;;;;;12.53;5.57;;;3.80;99.90;;;;;;5095122;28;20126;-73
2023/01/24 00:10:17;;;;;;;10.77;5.40;;;3.80;99.90;;;;;;5113632;28;20038;-72
2023/01/24 00:12:43;;;;;;;12.57;5.57;;;3.80;99.90;;;;;;5094856;28;20461;-72
2023/01/24 00:15:09;;;;;;;10.77;5.30;;;3.80;99.90;;;;;;5094875;28;20036;-72
2023/01/24 00:17:34;;;;;;;10.17;5.17;;;3.80;99.90;;;;;;5094034;28;20027;-73
2023/01/24 00:20:00;;;;;;;11.43;5.63;;;3.80;99.90;;;;;;5113530;28;20031;-72
2023/01/24 00:22:26;;;;;;;9.83;4.77;;;3.80;99.90;;;;;;5094422;28;20617;-72
2023/01/24 00:24:51;;;;;;;9.83;5.00;;;3.70;99.90;;;;;;5095119;28;20028;-73
2023/01/24 00:27:17;;;;;;;11.93;5.73;;;3.70;99.90;;;;;;5113261;28;20023;-72
2023/01/24 00:29:43;;;;;;;11.97;5.60;;;3.70;99.90;;;;;;5112561;28;20028;-72
2023/01/24 00:32:09;;;;;;;10.67;5.57;;;3.70;99.90;;;;;;5095142;28;20039;-73
2023/01/24 00:34:35;;;;;;;10.77;5.30;;;3.70;99.90;;;;;;5094308;28;20034;-73
2023/01/24 00:37:00;;;;;;;10.13;5.30;;;3.70;99.90;;;;;;5113026;28;20102;-73
2023/01/24 00:39:26;;;;;;;10.67;5.33;;;3.70;99.90;;;;;;5112436;28;20104;-73
2023/01/24 00:41:52;;;;;;;13.60;5.80;;;3.70;99.90;;;;;;5113261;28;20032;-73
2023/01/24 00:44:17;;;;;;;10.50;5.60;;;3.70;99.90;;;;;;5094836;28;20027;-73
2023/01/24 00:46:43;;;;;;;11.27;5.50;;;3.70;99.90;;;;;;5112195;28;20126;-74
2023/01/24 00:49:08;;;;;;;10.53;5.57;;;3.70;99.90;;;;;;5113025;28;20096;-74
2023/01/24 00:51:34;;;;;;;10.73;5.57;;;3.70;99.90;;;;;;5112214;28;20104;-73
2023/01/24 00:54:00;;;;;;;10.10;5.07;;;3.70;99.90;;;;;;5094917;28;20026;-73
2023/01/24 00:56:26;;;;;;;11.93;5.30;;;3.70;99.90;;;;;;5112333;28;20028;-73
2023/01/24 00:58:52;;;;;;;10.13;5.23;;;3.70;99.90;;;;;;5112466;28;20030;-73
2023/01/24 01:01:18;;;;;;;9.43;5.30;;;3.70;99.90;;;;;;5093759;28;20024;-73
2023/01/24 01:03:43;;;;;;;10.33;5.67;;;3.70;99.90;;;;;;5112262;28;20463;-73
2023/01/24 01:06:14;;;;;;;10.40;5.20;;;3.70;99.90;;;;;;5094814;28;20027;-73
2023/01/24 01:08:41;;;;;;;10.35;5.40;;;3.70;99.90;;;;;;5111835;28;20028;-73
2023/01/24 01:11:07;;;;;;;11.63;5.30;;;3.60;99.90;;;;;;5112757;28;20032;-73
2023/01/24 01:13:32;;;;;;;10.90;5.40;;;3.70;99.90;;;;;;5093704;28;20019;-73
2023/01/24 01:16:07;;;;;;;10.07;4.80;;;3.70;99.90;;;;;;5094443;28;20024;-73
2023/01/24 01:18:34;;;;;;;10.97;5.60;;;3.60;99.90;;;;;;5100098;28;20439;-73
2023/01/24 01:20:59;;;;;;;11.07;5.70;;;3.70;99.90;;;;;;5112782;28;20035;-73
2023/01/24 01:23:26;;;;;;;9.73;5.07;;;3.60;99.90;;;;;;5110794;28;20089;-73
2023/01/24 01:25:52;;;;;;;11.03;5.03;;;3.60;99.90;;;;;;5111462;28;20051;-73
2023/01/24 01:28:17;;;;;;;12.67;5.50;;;3.60;99.90;;;;;;5111377;28;20024;-73
2023/01/24 01:30:43;;;;;;;10.93;5.13;;;3.60;99.90;;;;;;5110564;28;20024;-73
2023/01/24 01:33:08;;;;;;;9.77;5.07;;;3.60;99.90;;;;;;5112571;28;20030;-73
2023/01/24 01:35:34;;;;;;;11.17;5.23;;;3.60;99.90;;;;;;5110293;28;20024;-73
2023/01/24 01:38:00;;;;;;;13.13;5.50;;;3.60;99.90;;;;;;5111169;28;20140;-73
2023/01/24 01:40:25;;;;;;;10.93;5.30;;;3.60;99.90;;;;;;5110703;28;20032;-74
2023/01/24 01:42:55;;;;;;;11.17;5.73;;;3.60;99.90;;;;;;5112106;28;20391;-73
2023/01/24 01:45:51;;;;;;;12.47;5.70;;;3.60;99.90;;;;;;5112214;28;20380;-72
2023/01/24 01:48:27;;;;;;;10.37;4.80;;;3.60;99.90;;;;;;5112431;28;20180;-72
2023/01/24 01:50:59;;;;;;;9.20;4.77;;;3.60;99.90;;;;;;5112069;28;20036;-72
2023/01/24 01:53:29;;;;;;;10.73;5.22;;;3.60;99.90;;;;;;5112132;28;20055;-73
2023/01/24 01:56:02;;;;;;;12.20;6.00;;;3.60;99.90;;;;;;5111131;28;20028;-73
2023/01/24 01:58:28;;;;;;;13.93;5.97;;;3.60;99.90;;;;;;5110463;28;20024;-75
2023/01/24 02:00:53;;;;;;;10.30;5.60;;;3.60;99.90;;;;;;5110683;28;20496;-73
2023/01/24 02:03:40;;;;;;;8.83;5.47;;;3.60;99.90;;;;;;5111055;28;20031;-72
2023/01/24 02:06:13;;;;;;;11.90;5.47;;;3.60;99.90;;;;;;5110745;28;20024;-73
2023/01/24 02:08:41;;;;;;;11.70;6.00;;;3.60;99.90;;;;;;5110278;28;20380;-72
2023/01/24 02:16:01;;;;;;;9.93;5.13;;;3.60;99.90;;;;;;5115622;28;20034;-73
2023/01/24 02:16:38;;;;;;;10.83;5.07;;;3.60;99.90;;;;;;5114783;28;20023;-73
2023/01/24 02:19:07;;;;;;;12.30;5.70;;;3.60;99.90;;;;;;5115373;28;20048;-72
2023/01/24 02:21:33;;;;;;;10.23;5.13;;;3.60;99.90;;;;;;5096672;28;20032;-73
2023/01/24 02:24:09;;;;;;;10.63;5.70;;;3.60;99.90;;;;;;5115657;28;20028;-72
2023/01/24 02:26:34;;;;;;;13.43;5.83;;;3.60;99.90;;;;;;5096744;28;20035;-73
2023/01/24 02:29:05;;;;;;;9.63;5.33;;;3.60;99.90;;;;;;5096956;28;20027;-73
2023/01/24 02:31:58;;;;;;;11.00;5.13;;;3.60;99.90;;;;;;5096537;28;20055;-74
2023/01/24 02:34:24;;;;;;;10.23;5.23;;;3.60;99.90;;;;;;5097182;28;20073;-73
2023/01/24 02:36:53;;;;;;;11.20;5.17;;;3.60;99.90;;;;;;5114793;28;20858;-73
2023/01/24 02:39:26;;;;;;;12.00;5.83;;;3.60;99.90;;;;;;5097105;28;20028;-73
2023/01/24 02:41:58;;;;;;;11.97;5.20;;;3.60;99.90;;;;;;5114525;28;20116;-73
2023/01/24 02:44:42;;;;;;;;;;;3.60;99.90;;;;;;5116080;28;20529;-73
2023/01/24 02:47:08;;;;;;;10.53;5.53;;;3.60;99.90;;;;;;5096983;28;19999;-73
2023/01/24 02:49:33;;;;;;;11.67;5.57;;;3.60;99.90;;;;;;5096419;28;20450;-73
2023/01/24 02:54:43;;;;;;;11.40;5.30;;;3.60;99.90;;;;;;5114146;28;20533;-73
2023/01/24 02:59:53;;;;;;;10.37;5.13;;;3.60;99.90;;;;;;5114517;28;20042;-73
2023/01/24 03:02:18;;;;;;;12.60;5.47;;;3.60;99.90;;;;;;5114723;28;20028;-73
2023/01/24 03:04:44;;;;;;;9.83;5.43;;;3.60;99.90;;;;;;5114260;28;20099;-73
2023/01/24 03:07:10;;;;;;;11.17;5.83;;;3.60;99.90;;;;;;5115009;28;20502;-73
2023/01/24 03:09:38;;;;;;;12.07;6.03;;;3.60;99.90;;;;;;5095887;28;20041;-73
2023/01/24 03:36:43;;;;;;;11.47;6.00;;;3.60;99.90;;;;;;5113706;28;20035;-73
2023/01/24 03:41:56;;;;;;;11.57;5.60;;;3.60;99.90;;;;;;5113492;28;20038;-73
2023/01/24 03:44:23;;;;;;;11.53;5.67;;;3.60;99.90;;;;;;5096013;28;20019;-74
2023/01/24 03:46:48;;;;;;;11.10;5.80;;;3.70;99.90;;;;;;5095106;28;20020;-73
2023/01/24 03:49:16;;;;;;;11.53;6.00;;;3.70;99.90;;;;;;5095333;28;20027;-73
2023/01/24 03:54:26;;;;;;;13.53;6.00;;;3.60;99.90;;;;;;5107573;28;20096;-74
2023/01/24 03:56:51;;;;;;;10.60;5.30;;;3.60;99.90;;;;;;5091624;28;20249;-73
2023/01/24 03:59:17;;;;;;;13.73;5.97;;;3.60;99.90;;;;;;5094280;28;20035;-73
2023/01/24 04:01:42;;;;;;;12.93;5.67;;;3.60;99.90;;;;;;5094399;28;20538;-73
2023/01/24 04:04:08;;;;;;;11.53;5.27;;;3.60;99.90;;;;;;5113724;28;20438;-73
2023/01/24 04:06:33;;;;;;;11.23;5.67;;;3.60;99.90;;;;;;5112897;28;20026;-75
2023/01/24 04:08:59;;;;;;;11.60;5.37;;;3.60;99.90;;;;;;5094659;28;20047;-73
2023/01/24 04:11:24;;;;;;;13.97;5.40;;;3.60;99.90;;;;;;5094948;28;20465;-72
2023/01/24 04:13:50;;;;;;;12.50;5.77;;;3.60;99.90;;;;;;5094158;28;20438;-73
2023/01/24 04:16:16;;;;;;;12.40;5.80;;;3.60;99.90;;;;;;5095176;28;20115;-72
2023/01/24 04:18:44;;;;;;;13.00;6.20;;;3.60;99.90;;;;;;5093703;28;20048;-73
2023/01/24 04:21:09;;;;;;;10.27;5.50;;;3.60;99.90;;;;;;5105118;28;20419;-73
2023/01/24 04:23:36;;;;;;;11.37;5.67;;;3.60;99.90;;;;;;5074104;28;20118;-75
2023/01/24 04:26:03;;;;;;;11.23;5.50;;;3.60;99.90;;;;;;5092346;28;20556;-73
2023/01/24 04:28:30;;;;;;;11.27;5.50;;;3.60;99.90;;;;;;5074635;28;20103;-73
2023/01/24 04:30:58;;;;;;;11.83;6.07;;;3.60;99.90;;;;;;5102499;28;20040;-73
2023/01/24 04:33:24;;;;;;;12.10;5.73;;;3.70;99.90;;;;;;5094707;28;20045;-73
2023/01/24 04:35:49;;;;;;;13.50;6.13;;;3.70;99.90;;;;;;5093985;28;20023;-73
2023/01/24 04:38:15;;;;;;;12.53;5.63;;;3.70;99.90;;;;;;5094715;28;20031;-73
2023/01/24 04:40:40;;;;;;;15.73;6.43;;;3.70;99.90;;;;;;5111743;28;20023;-73
2023/01/24 04:43:06;;;;;;;10.43;5.17;;;3.70;99.90;;;;;;5112772;28;20119;-73
2023/01/24 04:45:32;;;;;;;11.03;5.57;;;3.70;99.90;;;;;;5094507;28;20032;-73
2023/01/24 04:47:57;;;;;;;12.30;5.70;;;3.70;99.90;;;;;;5093893;28;20024;-73
2023/01/24 04:50:23;;;;;;;11.60;5.60;;;3.70;99.90;;;;;;5092620;28;20115;-75
2023/01/24 04:52:48;;;;;;;11.63;5.30;;;3.70;99.90;;;;;;5092176;28;20457;-73
2023/01/24 04:55:14;;;;;;;13.20;5.57;;;3.70;99.90;;;;;;5094458;28;20524;-73
2023/01/24 04:57:40;;;;;;;13.07;5.63;;;3.70;99.90;;;;;;5093597;28;20024;-75
2023/01/24 05:00:08;;;;;;;12.80;6.20;;;3.70;99.90;;;;;;5094111;28;20061;-73
2023/01/24 05:02:34;;;;;;;12.13;6.07;;;3.70;99.90;;;;;;5093827;28;20069;-74
2023/01/24 05:04:59;;;;;;;9.60;5.07;;;3.70;99.90;;;;;;5093594;28;20023;-73
2023/01/24 05:07:25;;;;;;;12.83;6.83;;;3.70;99.90;;;;;;5094245;28;20052;-73
2023/01/24 05:09:50;;;;;;;9.83;5.10;;;3.70;99.90;;;;;;5093201;28;20047;-73
2023/01/24 05:12:16;;;;;;;15.07;6.33;;;3.70;99.90;;;;;;5093624;28;20494;-73
2023/01/24 05:14:41;;;;;;;11.00;5.43;;;3.70;99.90;;;;;;5093625;28;20039;-73
2023/01/24 05:17:07;;;;;;;12.90;6.67;;;3.70;99.90;;;;;;5094284;28;20023;-72
2023/01/24 05:19:33;;;;;;;11.60;5.60;;;3.70;99.90;;;;;;5112078;28;20053;-73
2023/01/24 05:21:58;;;;;;;11.60;5.83;;;3.70;99.90;;;;;;5078878;28;20077;-73
2023/01/24 05:24:24;;;;;;;12.03;5.70;;;3.70;99.90;;;;;;5074033;28;20024;-73
2023/01/24 05:26:49;;;;;;;11.47;5.50;;;3.70;99.90;;;;;;5091358;28;20024;-73
2023/01/24 05:29:15;;;;;;;12.27;6.27;;;3.70;99.90;;;;;;5087199;28;20432;-73
2023/01/24 05:31:41;;;;;;;13.00;6.10;;;3.70;99.90;;;;;;5111556;28;20031;-73
2023/01/24 05:34:07;;;;;;;11.03;5.63;;;3.70;99.90;;;;;;5112645;28;20027;-73
2023/01/24 05:36:32;;;;;;;12.33;5.63;;;3.70;99.90;;;;;;5093863;28;20020;-73
2023/01/24 05:38:58;;;;;;;10.33;5.30;;;3.70;99.90;;;;;;5093352;28;20020;-73
2023/01/24 05:41:23;;;;;;;13.17;5.87;;;3.70;99.90;;;;;;5112385;28;20086;-73
2023/01/24 05:43:49;;;;;;;12.20;5.73;;;3.70;99.90;;;;;;5111594;28;20050;-73
2023/01/24 05:46:17;;;;;;;13.67;6.27;;;3.70;99.90;;;;;;5094277;28;20030;-73
2023/01/24 05:48:44;;;;;;;10.00;5.00;;;3.80;99.90;;;;;;5114707;28;20028;-73
2023/01/24 05:51:12;;;;;;;12.47;5.97;;;3.80;99.90;;;;;;5090043;28;20040;-72
2023/01/24 05:53:39;;;;;;;10.43;5.23;;;3.80;99.90;;;;;;5093418;28;20023;-74
2023/01/24 05:56:09;;;;;;;14.07;6.20;;;3.80;99.90;;;;;;5115917;28;20465;-73
2023/01/24 05:58:37;;;;;;;12.13;5.57;;;3.80;99.90;;;;;;5096696;28;20021;-75
2023/01/24 06:01:10;;;;;;;13.10;6.17;;;3.80;99.90;;;;;;5097201;28;20065;-73
2023/01/24 06:03:40;;;;;;;12.13;6.33;;;3.80;99.90;;;;;;5097326;28;20354;-75
2023/01/24 06:06:07;;;;;;;11.10;5.43;;;3.80;99.90;;;;;;5077000;28;20360;-73
2023/01/24 06:08:33;;;;;;;10.00;5.53;;;3.80;99.90;;;;;;5076903;28;20427;-74
2023/01/24 06:11:12;;;;;;;14.23;6.27;;;3.80;99.90;;;;;;5094361;28;20070;-73
2023/01/24 06:13:38;;;;;;;11.60;5.83;;;3.80;99.90;;;;;;5092908;28;20377;-74
2023/01/24 06:16:06;;;;;;;12.43;6.10;;;3.80;99.90;;;;;;5097053;28;20032;-73
2023/01/24 06:18:33;;;;;;;12.23;5.83;;;3.70;99.90;;;;;;5115085;28;20078;-73
2023/01/24 06:21:07;;;;;;;11.60;6.40;;;3.70;99.90;;;;;;5089735;28;20122;-73
2023/01/24 06:23:33;;;;;;;13.10;6.10;;;3.70;99.90;;;;;;5092214;28;20055;-73
2023/01/24 06:25:59;;;;;;;12.03;6.20;;;3.80;99.90;;;;;;5113954;28;20058;-73
2023/01/24 06:28:25;;;;;;;12.17;5.53;;;3.70;99.90;;;;;;5096843;28;20457;-74
2023/01/24 06:31:16;;;;;;;12.70;5.73;;;3.70;99.90;;;;;;5095715;28;20028;-74
2023/01/24 06:33:45;;;;;;;13.93;6.30;;;3.80;99.90;;;;;;5096056;28;20076;-74
2023/01/24 06:36:39;;;;;;;13.93;5.70;;;3.70;99.90;;;;;;5115341;28;20139;-73
2023/01/24 06:39:13;;;;;;;12.20;6.10;;;3.70;99.90;;;;;;5114758;28;20055;-73
2023/01/24 06:41:39;;;;;;;16.47;6.70;;;3.70;99.90;;;;;;5114164;28;20119;-75
2023/01/24 06:44:07;;;;;;;16.27;6.60;;;3.70;99.90;;;;;;5114266;28;20103;-73
2023/01/24 06:46:32;;;;;;;12.33;5.83;;;3.70;99.90;;;;;;5096354;28;20457;-74
2023/01/24 06:48:58;;;;;;;13.37;6.43;;;3.70;99.90;;;;;;5113545;28;20045;-73
2023/01/24 06:51:23;;;;;;;12.53;6.67;;;3.70;99.90;;;;;;5086694;28;20035;-73
2023/01/24 06:53:49;;;;;;;12.10;6.23;;;3.70;99.90;;;;;;5093310;28;20030;-74
2023/01/24 06:56:14;;;;;;;13.83;6.50;;;3.70;99.90;;;;;;5114801;28;20042;-73
2023/01/24 06:58:40;;;;;;;12.33;6.10;;;3.70;99.90;;;;;;5113162;28;20023;-75
2023/01/24 07:01:06;;;;;;;13.80;7.00;;;3.70;99.90;;;;;;5096155;28;20050;-74
2023/01/24 07:03:31;;;;;;;12.73;6.27;;;3.70;99.90;;;;;;5096453;28;20106;-73
2023/01/24 07:05:57;;;;;;;15.73;6.80;;;3.70;99.90;;;;;;5095545;28;20024;-73
2023/01/24 07:08:22;;;;;;;14.20;6.10;;;3.70;99.90;;;;;;5096500;28;20024;-73
2023/01/24 07:10:48;;;;;;;15.10;6.80;;;3.70;99.90;;;;;;5095434;28;20023;-73
2023/01/24 07:13:14;;;;;;;11.63;5.87;;;3.70;99.90;;;;;;5114256;28;20376;-73
2023/01/24 07:15:39;;;;;;;13.50;6.90;;;3.70;99.90;;;;;;5095863;28;20023;-74
2023/01/24 07:18:07;;;;;;;15.83;7.47;;;3.80;99.90;;;;;;5098287;28;20526;-73
2023/01/24 07:20:33;;;;;;;13.40;6.47;;;3.70;99.90;;;;;;5110328;28;20035;-73
2023/01/24 07:22:59;;;;;;;15.30;6.80;;;3.80;99.90;;;;;;5103667;28;20040;-73
2023/01/24 07:25:26;;;;;;;12.13;6.40;;;3.80;99.90;;;;;;5101897;28;20368;-73
2023/01/24 07:27:52;;;;;;;17.17;7.27;;;3.70;99.90;;;;;;5095299;28;20023;-74
2023/01/24 07:30:18;;;;;;;15.80;8.27;;;3.80;99.90;;;;;;5095849;28;20460;-73
2023/01/24 07:32:44;;;;;;;15.27;6.83;;;3.80;99.90;;;;;;5088426;28;20035;-74
2023/01/24 07:35:09;;;;;;;12.83;6.23;;;3.80;99.90;;;;;;5110474;28;20471;-74
2023/01/24 07:37:35;;;;;;;13.80;6.43;;;3.80;99.90;;;;;;5086085;28;20028;-74
2023/01/24 07:40:01;;;;;;;12.90;6.17;;;3.80;99.90;;;;;;5095460;28;20158;-73
2023/01/24 07:42:26;;;;;;;14.43;6.60;;;3.80;99.90;;;;;;5109964;28;20365;-73
2023/01/24 07:44:53;;;;;;;12.63;6.47;;;3.80;99.90;;;;;;5091987;28;20035;-73
2023/01/24 07:47:19;;;;;;;14.73;6.60;;;3.80;99.90;;;;;;5095482;28;20073;-74
2023/01/24 07:49:45;;;;;;;15.07;6.33;;;3.80;99.90;;;;;;5112979;28;20028;-74
2023/01/24 07:52:11;;;;;;;13.10;6.10;;;3.80;99.90;;;;;;5094585;28;20115;-72
2023/01/24 07:54:37;;;;;;;16.40;7.00;;;3.80;99.90;;;;;;5095531;28;20024;-73
2023/01/24 07:57:02;;;;;;;12.47;6.03;;;3.80;99.90;;;;;;5112908;28;20019;-73
2023/01/24 07:59:28;;;;;;;13.50;6.83;;;3.80;99.90;;;;;;5113042;28;20020;-73
2023/01/24 08:01:53;;;;;;;14.77;6.20;;;3.80;99.90;;;;;;5109421;28;20110;-74
2023/01/24 08:04:19;;;;;;;13.70;6.13;;;3.80;99.90;;;;;;5094086;28;20381;-74
2023/01/24 08:09:29;;;;;;;12.27;6.07;;;3.90;99.90;;;;;;5112926;28;20039;-74
2023/01/24 08:11:56;;;;;;;14.03;6.77;;;3.90;99.90;;;;;;5094539;28;20046;-74
2023/01/24 08:14:21;;;;;;;12.83;6.23;;;3.90;99.90;;;;;;5111836;28;20031;-73
2023/01/24 08:16:48;;;;;;;15.90;7.50;;;3.90;99.90;;;;;;5110108;28;20079;-74
2023/01/24 08:19:14;;;;;;;16.13;6.67;;;3.90;99.90;;;;;;5111481;28;20047;-74
2023/01/24 08:21:40;;;;;;;12.43;6.70;;;3.90;99.90;;;;;;5087341;28;20047;-73
2023/01/24 08:24:06;;;;;;;15.70;6.93;;;3.90;99.90;;;;;;5107275;28;20031;-73
2023/01/24 08:26:31;;;;;;;16.57;7.10;;;3.90;99.90;;;;;;5112877;28;20019;-73
2023/01/24 08:28:57;;;;;;;12.53;6.50;;;3.90;99.90;;;;;;5112342;28;20039;-73
2023/01/24 08:31:22;;;;;;;15.27;6.47;;;3.90;99.90;;;;;;5094965;28;20038;-74
2023/01/24 08:33:48;;;;;;;15.27;7.10;;;3.90;99.90;;;;;;5090293;28;20130;-74
2023/01/24 08:36:14;;;;;;;14.37;6.77;;;3.90;99.90;;;;;;5096238;28;20038;-74
2023/01/24 08:38:39;;;;;;;13.77;7.60;;;3.90;99.90;;;;;;5091555;28;20457;-73
2023/01/24 08:41:05;;;;;;;14.63;6.77;;;4.00;99.90;;;;;;5079163;28;20028;-73
2023/01/24 08:43:31;;;;;;;15.77;7.20;;;3.90;99.90;;;;;;5082345;28;20040;-73
2023/01/24 08:45:57;;;;;;;12.93;6.40;;;4.00;99.90;;;;;;5088012;28;20028;-73
2023/01/24 08:48:22;;;;;;;13.57;6.87;;;4.00;99.90;;;;;;5087488;28;20027;-73
2023/01/24 08:50:48;;;;;;;11.97;6.17;;;3.90;99.90;;;;;;5089997;28;20107;-73
2023/01/24 08:53:14;;;;;;;14.40;6.87;;;3.90;99.90;;;;;;5091130;28;20036;-73
2023/01/24 08:55:40;;;;;;;14.83;6.77;;;3.90;99.90;;;;;;5094959;28;20023;-73
2023/01/24 08:58:06;;;;;;;18.30;7.57;;;3.90;99.90;;;;;;5100747;28;20085;-73
2023/01/24 09:00:32;;;;;;;14.63;6.47;;;4.00;99.90;;;;;;5085611;28;20361;-74
2023/01/24 09:03:01;;;;;;;13.53;6.23;;;4.00;99.90;;;;;;5083660;28;20106;-73
2023/01/24 09:05:30;;;;;;;12.77;5.50;;;4.00;99.90;;;;;;5093004;28;20467;-76
2023/01/24 09:07:56;;;;;;;12.87;6.00;;;4.00;99.90;;;;;;5107819;28;20118;-74
2023/01/24 09:10:22;;;;;;;13.63;6.70;;;4.00;99.90;;;;;;5112168;28;20024;-73
2023/01/24 09:12:48;;;;;;;13.10;6.73;;;4.00;99.90;;;;;;5103696;28;20379;-74
2023/01/24 09:15:13;;;;;;;13.80;6.60;;;4.10;99.90;;;;;;5111892;28;20023;-74
2023/01/24 09:17:39;;;;;;;13.00;5.93;;;4.10;99.90;;;;;;5105724;28;20049;-73
2023/01/24 09:20:06;;;;;;;13.67;6.80;;;4.10;99.90;;;;;;5092880;28;20107;-73
2023/01/24 09:22:32;;;;;;;15.53;6.60;;;4.00;99.90;;;;;;5113107;28;20035;-74
2023/01/24 09:24:58;;;;;;;14.60;6.93;;;4.10;99.90;;;;;;5096881;28;20077;-73
2023/01/24 09:27:23;;;;;;;14.23;6.43;;;4.10;99.90;;;;;;5097656;28;20035;-74
2023/01/24 09:29:49;;;;;;;16.00;7.33;;;4.10;99.90;;;;;;5115400;28;20369;-74
2023/01/24 09:32:16;;;;;;;14.60;7.10;;;4.20;99.90;;;;;;5097667;28;20028;-73
2023/01/24 09:34:46;;;;;;;13.73;6.27;;;4.10;99.90;;;;;;5115407;28;20024;-74
2023/01/24 09:37:13;;;;;;;13.10;6.00;;;4.20;99.90;;;;;;5092483;28;20099;-74
2023/01/24 09:39:39;;;;;;;14.30;6.87;;;4.20;99.90;;;;;;5097399;28;20106;-74
2023/01/24 09:42:12;;;;;;;17.73;6.93;;;4.20;99.90;;;;;;5096703;28;20708;-74
2023/01/24 09:45:07;;;;;;;13.93;6.63;;;4.20;99.90;;;;;;5115748;28;20507;-74
2023/01/24 09:47:53;;;;;;;16.47;6.67;;;4.20;99.90;;;;;;5094663;28;20385;-73
2023/01/24 09:50:40;;;;;;;16.13;6.17;;;4.20;99.90;;;;;;5093326;28;20028;-73
2023/01/24 09:53:29;;;;;;;12.73;5.93;;;4.20;99.90;;;;;;5096506;28;20452;-73
2023/01/24 09:55:56;;;;;;;12.97;6.83;;;4.30;99.90;;;;;;5096615;28;20080;-74
2023/01/24 09:58:39;;;;;;;22.00;6.93;;;4.30;99.90;;;;;;5097010;28;20081;-74
2023/01/24 10:01:12;;;;;;;17.37;6.93;;;4.30;99.90;;;;;;5096335;28;20038;-73
2023/01/24 10:03:39;;;;;;;19.90;6.60;;;4.30;99.90;;;;;;5097187;28;20448;-73
2023/01/24 10:06:20;;;;;;;13.87;6.83;;;4.30;99.90;;;;;;5096270;28;20057;-74
2023/01/24 10:08:55;;;;;;;13.52;6.13;;;4.30;99.90;;;;;;5096938;28;20139;-74
2023/01/24 10:11:44;;;;;;;15.93;7.07;;;4.40;99.90;;;;;;5097286;28;20028;-74
2023/01/24 10:14:11;;;;;;;20.37;6.63;;;4.30;99.90;;;;;;5115233;28;20031;-73
2023/01/24 10:16:42;;;;;;;15.63;6.40;;;4.40;99.90;;;;;;5114711;28;20035;-73
2023/01/24 10:19:27;;;;;;;19.08;6.80;;;4.40;99.90;;;;;;5094207;28;20132;-74
2023/01/24 10:21:58;;;;;;;13.33;6.57;;;4.40;99.90;;;;;;5110251;28;20118;-74
2023/01/24 10:24:30;;;;;;;15.18;6.40;;;4.40;99.90;;;;;;5092314;28;20032;-73
2023/01/24 10:26:56;;;;;;;16.23;6.82;;;4.50;99.90;;;;;;5095868;28;20036;-73
2023/01/24 10:29:30;;;;;;;13.20;7.23;;;4.50;99.90;;;;;;5096665;28;20031;-73
2023/01/24 10:32:16;;;;;;;14.13;6.87;;;4.50;99.90;;;;;;5111774;28;20041;-74
2023/01/24 10:34:43;;;;;;;13.63;6.90;;;4.60;99.90;;;;;;5093918;28;20039;-73
2023/01/24 10:37:09;;;;;;;12.73;6.23;;;4.60;99.90;;;;;;5095505;28;20029;-75
2023/01/24 10:39:35;;;;;;;14.67;6.70;;;4.60;99.90;;;;;;5114935;28;20099;-73
2023/01/24 10:42:00;;;;;;;13.87;7.30;;;4.60;99.90;;;;;;5095723;28;20032;-74
2023/01/24 10:44:33;;;;;;;14.90;7.03;;;4.60;99.90;;;;;;5115033;28;20024;-73
2023/01/24 10:47:05;;;;;;;14.00;6.43;;;4.60;99.90;;;;;;5096133;28;20055;-74
2023/01/24 10:49:40;;;;;;;14.48;6.80;;;4.60;99.90;;;;;;5096471;28;20063;-74
2023/01/24 10:52:17;;;;;;;14.10;6.23;;;4.60;99.90;;;;;;5095933;28;20605;-74
2023/01/24 10:54:49;;;;;;;17.30;6.90;;;4.60;99.90;;;;;;5096621;28;20048;-73
2023/01/24 10:57:36;;;;;;;13.73;6.18;;;4.60;99.90;;;;;;5096561;28;20032;-74
2023/01/24 11:00:22;;;;;;;14.17;6.10;;;4.70;99.90;;;;;;5094090;28;20020;-74
2023/01/24 11:02:51;;;;;;;13.67;6.43;;;4.70;99.90;;;;;;5105452;28;20464;-75
2023/01/24 11:05:18;;;;;;;16.20;6.50;;;4.70;99.90;;;;;;5096447;28;20023;-74
2023/01/24 11:07:48;;;;;;;12.63;6.13;;;4.80;99.90;;;;;;5096321;28;20027;-74
2023/01/24 11:10:22;;;;;;;11.83;6.13;;;4.80;99.90;;;;;;5114581;28;20055;-75
2023/01/24 11:12:54;;;;;;;15.30;6.40;;;4.80;99.90;;;;;;5088789;28;20038;-74
2023/01/24 11:15:26;;;;;;;12.40;5.97;;;4.80;99.90;;;;;;5095451;28;20465;-74
2023/01/24 11:18:05;;;;;;;13.43;6.03;;;4.80;99.90;;;;;;5111939;28;20042;-72
2023/01/24 11:20:34;;;;;;;15.27;6.03;;;4.80;99.90;;;;;;5093147;28;20030;-73
2023/01/24 11:23:17;;;;;;;14.13;6.03;;;4.80;99.90;;;;;;5087930;28;20127;-73
2023/01/24 11:26:03;;;;;;;12.73;6.77;;;4.80;99.90;;;;;;5095527;28;20465;-74
2023/01/24 11:28:32;;;;;;;14.07;6.27;;;4.90;99.90;;;;;;5095871;28;20027;-73
2023/01/24 11:31:10;;;;;;;12.57;5.67;;;4.80;99.90;;;;;;5094699;28;20487;-73
2023/01/24 11:33:48;;;;;;;12.77;6.27;;;4.90;99.90;;;;;;5094819;28;20046;-73
2023/01/24 11:36:41;;;;;;;10.27;5.87;;;4.90;99.90;;;;;;5112963;28;20069;-73
2023/01/24 11:39:33;;;;;;;12.93;6.40;;;4.90;99.90;;;;;;5112695;28;20036;-74
2023/01/24 11:42:22;;;;;;;12.23;6.13;;;4.90;99.90;;;;;;5093777;28;20088;-73
2023/01/24 11:45:16;;;;;;;13.73;5.53;;;4.90;99.90;;;;;;5073988;28;20035;-74
2023/01/24 11:48:19;;;;;;;10.33;5.90;;;4.90;99.90;;;;;;5091987;28;20035;-73
2023/01/24 11:50:59;;;;;;;13.37;5.80;;;4.90;99.90;;;;;;5094934;28;20120;-75
2023/01/24 11:53:28;;;;;;;12.40;6.13;;;4.90;99.90;;;;;;5075428;28;20039;-73
2023/01/24 11:56:11;;;;;;;13.07;5.43;;;4.90;99.90;;;;;;5111622;28;20400;-74
2023/01/24 11:58:42;;;;;;;11.30;5.07;;;4.90;99.90;;;;;;5094331;28;20023;-74
2023/01/24 12:01:12;;;;;;;11.95;5.50;;;4.90;99.90;;;;;;5094785;28;20067;-73
2023/01/24 12:04:11;;;;;;;13.73;6.50;;;4.90;99.90;;;;;;5113661;28;20035;-73
2023/01/24 12:06:48;;;;;;;13.30;5.67;;;4.90;99.90;;;;;;5095364;28;20028;-73
2023/01/24 12:09:21;;;;;;;9.57;5.37;;;5.00;99.90;;;;;;5094955;28;20023;-73
2023/01/24 12:12:20;;;;;;;12.63;5.30;;;5.00;99.90;;;;;;5113061;28;20032;-75
2023/01/24 12:14:49;;;;;;;11.30;5.10;;;4.90;99.90;;;;;;5112830;28;20055;-74
2023/01/24 12:17:24;;;;;;;10.20;5.37;;;5.00;99.90;;;;;;5112239;28;20028;-73
2023/01/24 12:19:53;;;;;;;9.93;5.30;;;5.00;99.90;;;;;;5072006;28;20523;-73
2023/01/24 12:22:24;;;;;;;11.80;4.97;;;5.00;99.90;;;;;;5064068;28;20047;-72
2023/01/24 12:25:05;;;;;;;9.82;4.45;;;5.10;99.90;;;;;;5091694;28;20385;-74
2023/01/24 12:27:35;;;;;;;10.37;5.23;;;5.10;99.90;;;;;;5074243;28;20400;-72
2023/01/24 12:30:00;;;;;;;11.10;5.03;;;5.10;99.90;;;;;;5073828;28;20028;-73
2023/01/24 12:32:44;;;;;;;11.93;5.50;;;5.10;99.90;;;;;;5092322;28;20031;-73
2023/01/24 12:35:35;;;;;;;11.53;4.97;;;5.10;99.90;;;;;;5090831;28;20035;-73
2023/01/24 12:38:31;;;;;;;11.23;5.20;;;5.10;99.90;;;;;;5075832;28;20101;-73
2023/01/24 12:41:33;;;;;;;11.53;5.10;;;5.10;99.90;;;;;;5091093;28;20013;-73
2023/01/24 12:44:15;;;;;;;10.77;5.20;;;5.00;99.90;;;;;;5072824;28;20031;-73
2023/01/24 12:47:00;;;;;;;9.95;5.22;;;5.00;99.90;;;;;;5070937;28;20039;-73
2023/01/24 12:49:48;;;;;;;10.67;5.00;;;5.10;99.90;;;;;;5088267;28;20107;-73
2023/01/24 12:52:22;;;;;;;10.87;5.20;;;5.10;99.90;;;;;;5069835;28;20033;-73
2023/01/24 12:55:14;;;;;;;12.97;5.30;;;5.10;99.90;;;;;;5073578;28;20025;-76
2023/01/24 12:57:42;;;;;;;11.93;4.77;;;5.10;99.90;;;;;;5071743;28;20115;-73
2023/01/24 13:00:22;;;;;;;12.07;5.60;;;5.10;99.90;;;;;;5091474;28;20036;-73
2023/01/24 13:03:27;;;;;;;10.77;5.23;;;5.10;99.90;;;;;;5074006;28;20043;-75
2023/01/24 13:06:24;;;;;;;10.83;5.37;;;5.10;99.90;;;;;;5043108;28;20097;-74
2023/01/24 13:09:01;;;;;;;10.70;5.63;;;5.10;99.90;;;;;;5073729;28;20393;-76
2023/01/24 13:11:28;;;;;;;11.13;5.10;;;5.10;99.90;;;;;;5092029;28;20288;-74
2023/01/24 13:14:07;;;;;;;12.87;5.50;;;5.10;99.90;;;;;;5071933;28;20032;-73
2023/01/24 13:17:05;;;;;;;11.50;5.27;;;5.10;99.90;;;;;;5089524;28;20024;-74
2023/01/24 13:19:42;;;;;;;9.07;5.00;;;5.10;99.90;;;;;;5042289;28;20397;-74
2023/01/24 13:22:49;;;;;;;8.97;5.03;;;5.10;99.90;;;;;;5074562;28;20028;-74
2023/01/24 13:25:45;;;;;;;10.50;5.27;;;5.00;99.90;;;;;;5007364;28;20040;-73
2023/01/24 13:28:45;;;;;;;9.73;5.30;;;5.10;99.90;;;;;;5077241;28;20021;-73
2023/01/24 13:31:42;;;;;;;10.90;4.97;;;5.10;99.90;;;;;;5073302;28;20058;-73
2023/01/24 13:34:15;;;;;;;12.27;5.50;;;5.00;99.90;;;;;;5058883;28;20028;-73
2023/01/24 13:36:45;;;;;;;10.63;4.70;;;5.00;99.90;;;;;;5073275;28;20172;-74
2023/01/24 13:39:32;;;;;;;10.13;4.70;;;5.00;99.90;;;;;;5089840;28;20220;-74
2023/01/24 13:42:17;;;;;;;10.87;5.20;;;5.10;99.90;;;;;;5087664;28;20047;-73
2023/01/24 13:44:43;;;;;;;9.17;4.70;;;5.10;99.90;;;;;;5071829;28;20461;-74
2023/01/24 13:47:08;;;;;;;10.93;4.73;;;5.10;99.90;;;;;;5090577;28;20031;-73